Time;durP1;ratioP1;P1;durP2;ratioP2;P2;SDS_P1;SDS_P2;PMS_P1;PMS_P2;Temp;Humidity;BMP_temperature;BMP_pressure;BME280_temperature;BME280_humidity;BME280_pressure;Samples;Min_cycle;Max_cycle;Signal;HPM_P1;HPM_P2
2024/01/25 00:01:54;;;;;;;34.23;8.53;;;8.70;1.00;;;;;;5053608;28;20214;-70
2024/01/25 00:04:19;;;;;;;37.00;9.40;;;8.70;1.00;;;;;;5053727;28;20199;-70
2024/01/25 00:06:45;;;;;;;45.23;10.63;;;8.70;1.00;;;;;;5053156;28;20308;-70
2024/01/25 00:09:10;;;;;;;39.83;9.30;;;8.70;1.00;;;;;;5053528;28;20218;-70
2024/01/25 00:11:36;;;;;;;28.10;8.33;;;8.70;1.00;;;;;;5053310;28;20171;-70
2024/01/25 00:14:02;;;;;;;36.73;10.23;;;8.70;1.00;;;;;;5053127;28;20285;-71
2024/01/25 00:16:28;;;;;;;35.87;9.37;;;8.70;1.00;;;;;;5052974;28;20577;-71
2024/01/25 00:18:54;;;;;;;42.03;8.77;;;8.80;1.00;;;;;;5053093;28;20236;-71
2024/01/25 00:21:20;;;;;;;45.17;9.67;;;8.80;1.00;;;;;;5053081;28;20163;-71
2024/01/25 00:23:45;;;;;;;34.83;9.10;;;8.80;1.00;;;;;;5053086;28;20187;-71
2024/01/25 00:26:11;;;;;;;35.97;8.97;;;8.80;1.00;;;;;;5053086;28;20182;-71
2024/01/25 00:28:36;;;;;;;38.27;9.07;;;8.90;1.00;;;;;;5053053;28;20182;-71
2024/01/25 00:31:02;;;;;;;35.10;9.40;;;8.90;1.00;;;;;;5052998;28;20179;-71
2024/01/25 00:33:28;;;;;;;36.60;10.53;;;8.90;1.00;;;;;;5052589;28;20201;-71
2024/01/25 00:35:54;;;;;;;34.97;8.73;;;8.90;1.00;;;;;;5053012;28;20235;-70
2024/01/25 00:38:20;;;;;;;36.33;9.20;;;8.90;1.00;;;;;;5052968;28;20181;-71
2024/01/25 00:40:46;;;;;;;47.77;10.23;;;8.80;1.00;;;;;;5052513;28;20254;-71
2024/01/25 00:43:12;;;;;;;36.97;9.53;;;8.80;1.00;;;;;;5052705;28;20170;-71
2024/01/25 00:45:37;;;;;;;26.13;8.53;;;8.80;1.00;;;;;;5052616;28;20179;-71
2024/01/25 00:48:03;;;;;;;40.40;8.77;;;8.70;1.00;;;;;;5052578;28;20589;-70
2024/01/25 00:50:30;;;;;;;34.13;9.33;;;8.70;1.00;;;;;;5052332;28;20170;-70
2024/01/25 00:52:55;;;;;;;39.53;10.47;;;8.60;1.00;;;;;;5052788;28;20232;-70
2024/01/25 00:55:22;;;;;;;29.53;9.37;;;8.50;1.00;;;;;;5052636;28;20620;-70
2024/01/25 00:57:47;;;;;;;29.17;8.70;;;8.50;1.00;;;;;;5052951;28;20202;-70
2024/01/25 01:00:14;;;;;;;36.07;8.37;;;8.50;1.00;;;;;;5052295;28;20729;-71
2024/01/25 01:02:43;;;;;;;34.40;8.07;;;8.40;1.00;;;;;;5052864;28;20167;-71
2024/01/25 01:07:36;;;;;;;42.57;8.87;;;8.30;1.00;;;;;;5011318;28;20215;-71
2024/01/25 01:10:03;;;;;;;35.33;9.37;;;8.20;1.00;;;;;;5012482;28;20267;-71
2024/01/25 01:12:28;;;;;;;38.90;9.47;;;8.20;1.00;;;;;;5012480;28;20168;-73
2024/01/25 01:14:54;;;;;;;41.23;9.63;;;8.20;1.00;;;;;;5012424;28;20546;-71
2024/01/25 01:17:20;;;;;;;37.73;9.33;;;8.10;1.00;;;;;;5012431;28;20208;-71
2024/01/25 01:19:45;;;;;;;34.20;9.03;;;8.00;1.00;;;;;;5012684;28;20662;-72
2024/01/25 01:22:11;;;;;;;43.67;8.87;;;8.00;1.00;;;;;;5013238;28;20176;-72
2024/01/25 01:24:36;;;;;;;35.50;8.80;;;7.90;11.70;;;;;;5012805;28;20191;-72
2024/01/25 01:27:02;;;;;;;28.90;8.43;;;7.90;44.60;;;;;;5012744;28;20192;-71
2024/01/25 01:29:28;;;;;;;28.93;8.73;;;7.90;42.70;;;;;;5013057;28;20227;-72
2024/01/25 01:31:53;;;;;;;39.90;9.27;;;7.90;79.80;;;;;;5013002;28;20180;-72
2024/01/25 01:34:19;;;;;;;40.47;8.90;;;7.80;52.80;;;;;;5013534;28;20586;-72
2024/01/25 01:36:44;;;;;;;28.07;8.33;;;7.80;34.50;;;;;;5013108;28;20223;-71
2024/01/25 01:39:10;;;;;;;41.37;9.40;;;7.70;53.00;;;;;;5012796;28;20184;-72
2024/01/25 01:41:36;;;;;;;41.60;9.47;;;7.70;71.40;;;;;;5014174;28;20176;-72
2024/01/25 01:44:02;;;;;;;32.13;9.90;;;7.60;99.90;;;;;;5013955;28;20180;-72
2024/01/25 01:46:36;;;;;;;38.73;9.10;;;7.60;99.90;;;;;;5014699;28;20235;-72
2024/01/25 01:49:03;;;;;;;35.50;10.63;;;7.60;99.90;;;;;;5015616;28;20168;-72
2024/01/25 01:51:30;;;;;;;42.77;9.97;;;7.50;99.90;;;;;;5012594;28;20184;-72
2024/01/25 01:53:57;;;;;;;52.00;9.40;;;7.50;99.90;;;;;;5011693;28;20242;-71
2024/01/25 01:56:26;;;;;;;48.33;10.13;;;7.50;99.90;;;;;;5011747;28;20212;-72
2024/01/25 01:58:53;;;;;;;41.20;8.90;;;7.50;99.90;;;;;;5011861;28;20267;-72
2024/01/25 02:01:20;;;;;;;29.83;9.00;;;7.40;99.90;;;;;;5011979;28;20172;-72
2024/01/25 02:03:45;;;;;;;33.73;9.50;;;7.40;99.90;;;;;;5012290;28;20172;-71
2024/01/25 02:06:11;;;;;;;35.40;9.27;;;7.40;99.90;;;;;;5011803;28;20210;-71
2024/01/25 02:08:37;;;;;;;40.07;9.47;;;7.40;99.90;;;;;;5011309;28;20180;-72
2024/01/25 02:11:03;;;;;;;42.03;10.10;;;7.40;99.90;;;;;;5011433;28;20215;-72
2024/01/25 02:13:28;;;;;;;32.00;8.10;;;7.30;99.90;;;;;;5011776;28;20212;-72
2024/01/25 02:15:54;;;;;;;40.60;9.27;;;7.30;99.90;;;;;;5011304;28;20200;-73
2024/01/25 02:18:19;;;;;;;40.53;9.10;;;7.30;99.90;;;;;;5011581;28;20179;-72
2024/01/25 02:20:45;;;;;;;40.43;9.03;;;7.30;99.90;;;;;;5011373;28;20255;-73
2024/01/25 02:23:10;;;;;;;36.47;8.83;;;7.30;99.90;;;;;;5011875;28;20172;-73
2024/01/25 02:25:36;;;;;;;47.60;9.27;;;7.30;99.90;;;;;;5011342;28;20246;-73
2024/01/25 02:28:02;;;;;;;35.20;9.03;;;7.30;99.90;;;;;;5011375;28;20180;-72
2024/01/25 02:30:27;;;;;;;34.37;9.53;;;7.30;99.90;;;;;;5011547;28;20176;-73
2024/01/25 02:32:53;;;;;;;47.20;10.67;;;7.30;99.90;;;;;;5011380;28;20266;-73
2024/01/25 02:35:18;;;;;;;47.10;9.13;;;7.30;99.90;;;;;;4993577;28;20211;-73
2024/01/25 02:37:44;;;;;;;28.37;8.00;;;7.40;99.90;;;;;;5011277;28;20216;-73
2024/01/25 02:40:10;;;;;;;30.30;8.40;;;7.50;99.90;;;;;;5011291;28;20172;-73
2024/01/25 02:42:36;;;;;;;37.30;9.73;;;7.50;99.90;;;;;;5011197;28;20180;-73
2024/01/25 02:45:01;;;;;;;31.57;9.37;;;7.50;99.90;;;;;;5011247;28;20246;-73
2024/01/25 02:47:27;;;;;;;37.10;9.80;;;7.60;99.90;;;;;;5011127;28;20176;-73
2024/01/25 02:49:52;;;;;;;34.63;9.67;;;7.60;99.90;;;;;;5011154;28;20644;-73
2024/01/25 02:52:18;;;;;;;39.73;8.50;;;7.70;99.90;;;;;;4993697;28;20180;-73
2024/01/25 02:54:44;;;;;;;37.93;9.27;;;7.70;99.90;;;;;;5010193;28;20187;-73
2024/01/25 02:57:09;;;;;;;34.47;9.77;;;7.70;99.90;;;;;;5011325;28;20211;-73
2024/01/25 02:59:35;;;;;;;34.90;10.47;;;7.80;99.90;;;;;;5011790;28;20211;-72
2024/01/25 03:02:01;;;;;;;36.83;9.63;;;7.80;99.90;;;;;;5011373;28;20179;-72
2024/01/25 03:04:26;;;;;;;56.47;17.87;;;7.70;99.90;;;;;;5011319;28;20169;-73
2024/01/25 03:06:52;;;;;;;52.33;17.67;;;7.70;99.90;;;;;;4993257;28;20243;-73
2024/01/25 03:09:17;;;;;;;39.07;9.30;;;7.60;99.90;;;;;;5010977;28;20460;-72
2024/01/25 03:11:43;;;;;;;28.83;8.60;;;7.60;99.90;;;;;;5010836;28;20180;-73
2024/01/25 03:14:08;;;;;;;32.57;9.40;;;7.50;99.90;;;;;;5010611;28;20206;-73
2024/01/25 03:16:34;;;;;;;25.53;8.63;;;7.50;99.90;;;;;;5010809;28;20204;-71
2024/01/25 03:19:00;;;;;;;41.00;10.10;;;7.40;99.90;;;;;;5011240;28;20200;-72
2024/01/25 03:21:25;;;;;;;42.40;9.80;;;7.40;99.90;;;;;;5010832;28;20231;-72
2024/01/25 03:23:51;;;;;;;32.30;9.23;;;7.30;99.90;;;;;;5014155;28;20176;-71
2024/01/25 03:26:16;;;;;;;36.10;8.07;;;7.30;99.90;;;;;;5014484;28;20655;-71
2024/01/25 03:28:42;;;;;;;36.47;10.07;;;7.20;99.90;;;;;;5014120;28;20222;-71
2024/01/25 03:31:08;;;;;;;32.63;9.40;;;7.20;99.90;;;;;;5014436;28;20611;-71
2024/01/25 03:33:33;;;;;;;41.20;9.73;;;7.10;99.90;;;;;;5014522;28;20238;-71
2024/01/25 03:36:06;;;;;;;31.37;8.70;;;7.10;99.90;;;;;;5014458;28;20196;-72
2024/01/25 03:38:32;;;;;;;37.20;10.10;;;7.10;99.90;;;;;;5014646;28;20173;-71
2024/01/25 03:40:58;;;;;;;38.97;9.00;;;7.00;99.90;;;;;;5014119;28;20172;-72
2024/01/25 03:43:27;;;;;;;39.83;9.67;;;7.00;99.90;;;;;;5014124;28;20164;-71
2024/01/25 03:45:54;;;;;;;36.07;8.80;;;7.00;99.90;;;;;;5014081;28;20684;-71
2024/01/25 03:48:20;;;;;;;42.77;12.47;;;6.90;99.90;;;;;;5013744;28;20169;-71
2024/01/25 03:50:45;;;;;;;47.00;10.00;;;6.90;99.90;;;;;;5013796;28;20543;-71
2024/01/25 03:53:11;;;;;;;35.30;10.27;;;6.90;99.90;;;;;;5013951;28;20226;-71
2024/01/25 03:55:37;;;;;;;42.50;9.87;;;7.00;99.90;;;;;;5013281;28;20191;-71
2024/01/25 03:58:02;;;;;;;53.93;9.60;;;7.00;99.90;;;;;;5013873;28;20196;-71
2024/01/25 04:00:28;;;;;;;37.63;10.20;;;6.90;99.90;;;;;;5014114;28;20172;-72
2024/01/25 04:02:53;;;;;;;47.20;10.00;;;6.90;99.90;;;;;;5013828;28;20643;-72
2024/01/25 04:05:19;;;;;;;26.57;9.03;;;6.90;99.90;;;;;;5013687;28;20192;-73
2024/01/25 04:07:44;;;;;;;37.93;10.27;;;6.80;99.90;;;;;;5013707;28;20363;-72
2024/01/25 04:10:10;;;;;;;43.37;10.37;;;6.80;99.90;;;;;;4995760;28;20188;-72
2024/01/25 04:12:36;;;;;;;28.63;10.07;;;6.80;99.90;;;;;;4996382;28;20519;-72
2024/01/25 04:15:02;;;;;;;46.00;10.67;;;6.80;99.90;;;;;;5013180;28;20176;-72
2024/01/25 04:17:27;;;;;;;43.50;9.23;;;6.70;99.90;;;;;;4995924;28;20208;-72
2024/01/25 04:19:53;;;;;;;39.77;11.10;;;6.70;99.90;;;;;;5013421;28;20690;-72
2024/01/25 04:22:18;;;;;;;41.33;9.63;;;6.70;99.90;;;;;;5013591;28;20168;-72
2024/01/25 04:24:44;;;;;;;40.50;9.93;;;6.60;99.90;;;;;;5012948;28;20207;-71
2024/01/25 04:27:10;;;;;;;40.37;10.33;;;6.70;99.90;;;;;;5013414;28;20283;-72
2024/01/25 04:29:41;;;;;;;32.67;8.67;;;6.70;99.90;;;;;;5013498;28;20172;-72
2024/01/25 04:32:07;;;;;;;49.13;10.93;;;6.70;99.90;;;;;;5013487;28;20172;-72
2024/01/25 04:34:32;;;;;;;33.73;8.83;;;6.60;99.90;;;;;;5012932;28;20230;-72
2024/01/25 04:36:58;;;;;;;33.77;8.43;;;6.60;99.90;;;;;;5012941;28;20231;-72
2024/01/25 04:39:24;;;;;;;26.30;8.83;;;6.60;99.90;;;;;;5012824;28;20191;-72
2024/01/25 04:41:49;;;;;;;44.43;10.00;;;6.50;99.90;;;;;;5013148;28;20644;-72
2024/01/25 04:44:15;;;;;;;38.10;9.83;;;6.50;99.90;;;;;;5013237;28;20172;-72
2024/01/25 04:46:41;;;;;;;35.50;8.77;;;6.40;99.90;;;;;;5012937;28;20731;-72
2024/01/25 04:49:07;;;;;;;43.63;11.60;;;6.30;99.90;;;;;;5012882;28;20176;-72
2024/01/25 04:51:33;;;;;;;51.43;10.10;;;6.30;99.90;;;;;;5012538;28;20191;-72
2024/01/25 04:53:58;;;;;;;54.63;11.23;;;6.20;99.90;;;;;;4995015;28;20279;-72
2024/01/25 04:56:24;;;;;;;35.10;9.00;;;6.10;99.90;;;;;;5012647;28;20690;-72
2024/01/25 04:58:50;;;;;;;48.40;9.73;;;6.10;99.90;;;;;;5012855;28;20172;-72
2024/01/25 05:01:15;;;;;;;46.83;9.87;;;6.00;99.90;;;;;;5013231;28;20609;-72
2024/01/25 05:03:41;;;;;;;49.23;9.70;;;5.90;99.90;;;;;;5012692;28;20533;-72
2024/01/25 05:06:06;;;;;;;34.63;8.90;;;5.80;99.90;;;;;;5012614;28;20208;-72
2024/01/25 05:08:32;;;;;;;49.20;10.87;;;5.80;99.90;;;;;;5012598;28;20195;-72
2024/01/25 05:10:57;;;;;;;35.47;8.93;;;5.80;99.90;;;;;;5012466;28;20642;-72
2024/01/25 05:13:23;;;;;;;37.23;10.03;;;5.70;99.90;;;;;;5012672;28;20168;-72
2024/01/25 05:15:49;;;;;;;44.23;9.30;;;5.60;99.90;;;;;;5012468;28;20228;-73
2024/01/25 05:18:14;;;;;;;41.73;9.53;;;5.60;99.90;;;;;;5012225;28;20246;-72
2024/01/25 05:20:40;;;;;;;38.53;10.20;;;5.50;99.90;;;;;;5012193;28;20191;-72
2024/01/25 05:23:05;;;;;;;32.20;9.83;;;5.50;99.90;;;;;;5012533;28;20187;-72
2024/01/25 05:25:31;;;;;;;44.97;9.80;;;5.50;99.90;;;;;;5012458;28;20199;-72
2024/01/25 05:27:57;;;;;;;37.83;10.20;;;5.40;99.90;;;;;;5012139;28;20274;-72
2024/01/25 05:30:24;;;;;;;50.83;11.03;;;5.40;99.90;;;;;;5012331;28;20180;-72
2024/01/25 05:32:50;;;;;;;63.93;9.63;;;5.40;99.90;;;;;;5012201;28;20177;-72
2024/01/25 05:35:16;;;;;;;38.93;9.53;;;5.30;99.90;;;;;;5012111;28;20174;-72
2024/01/25 05:37:42;;;;;;;37.90;10.77;;;5.30;99.90;;;;;;4994476;28;20203;-72
2024/01/25 05:40:09;;;;;;;38.27;9.20;;;5.30;99.90;;;;;;5012003;28;20172;-73
2024/01/25 05:42:35;;;;;;;41.67;10.00;;;5.10;99.90;;;;;;4994164;28;20176;-72
2024/01/25 05:45:03;;;;;;;49.97;10.73;;;5.20;99.90;;;;;;4993779;28;20180;-72
2024/01/25 05:47:28;;;;;;;56.23;11.33;;;5.10;99.90;;;;;;5011873;28;20295;-73
2024/01/25 05:49:55;;;;;;;35.03;9.50;;;5.00;99.90;;;;;;5011831;28;20642;-72
2024/01/25 05:52:21;;;;;;;43.87;10.23;;;5.30;99.90;;;;;;5012026;28;20263;-72
2024/01/25 05:54:47;;;;;;;41.77;9.87;;;5.10;99.90;;;;;;5011842;28;20171;-72
2024/01/25 05:57:12;;;;;;;40.20;10.33;;;5.00;99.90;;;;;;5011743;28;20207;-72
2024/01/25 05:59:38;;;;;;;36.77;9.53;;;5.10;99.90;;;;;;5011817;28;20168;-72
2024/01/25 06:02:04;;;;;;;39.60;10.17;;;5.00;99.90;;;;;;5012010;28;20652;-72
2024/01/25 06:04:30;;;;;;;33.40;9.77;;;5.10;99.90;;;;;;5011962;28;20588;-72
2024/01/25 06:06:56;;;;;;;42.37;10.93;;;5.10;99.90;;;;;;5011467;28;20254;-72
2024/01/25 06:09:22;;;;;;;43.07;10.47;;;5.00;99.90;;;;;;5011678;28;20222;-72
2024/01/25 06:11:48;;;;;;;36.33;9.50;;;5.00;99.90;;;;;;5011214;28;20180;-72
2024/01/25 06:14:14;;;;;;;34.90;9.47;;;5.00;99.90;;;;;;5011510;28;20206;-72
2024/01/25 06:16:39;;;;;;;47.57;11.20;;;4.90;99.90;;;;;;5011541;28;20225;-72
2024/01/25 06:19:05;;;;;;;40.50;10.83;;;5.00;99.90;;;;;;5011662;28;20187;-72
2024/01/25 06:21:30;;;;;;;41.53;10.67;;;4.90;99.90;;;;;;5011549;28;20318;-72
2024/01/25 06:23:56;;;;;;;51.47;11.77;;;5.00;99.90;;;;;;5011619;28;20169;-72
2024/01/25 06:26:21;;;;;;;40.13;9.80;;;4.90;99.90;;;;;;5011421;28;20294;-72
2024/01/25 06:28:47;;;;;;;61.50;11.43;;;4.90;99.90;;;;;;5011156;28;20180;-72
2024/01/25 06:31:12;;;;;;;39.73;11.23;;;5.10;99.90;;;;;;5011530;28;20180;-72
2024/01/25 06:33:38;;;;;;;51.23;11.50;;;5.00;99.90;;;;;;5011675;28;20168;-72
2024/01/25 06:36:04;;;;;;;48.37;10.93;;;5.10;99.90;;;;;;5011198;28;20721;-72
2024/01/25 06:38:29;;;;;;;40.00;10.23;;;5.10;99.90;;;;;;5011420;28;20173;-72
2024/01/25 06:40:55;;;;;;;42.10;10.47;;;5.10;99.90;;;;;;4993239;28;20259;-71
2024/01/25 06:43:20;;;;;;;47.10;11.03;;;5.10;99.90;;;;;;5011325;28;20206;-71
2024/01/25 06:45:46;;;;;;;61.73;12.70;;;5.20;99.90;;;;;;5011224;28;20192;-72
2024/01/25 06:48:12;;;;;;;52.77;12.03;;;5.30;99.90;;;;;;5011288;28;20686;-72
2024/01/25 06:50:37;;;;;;;57.73;12.60;;;5.30;99.90;;;;;;5010064;28;20233;-72
2024/01/25 06:53:04;;;;;;;52.03;12.07;;;5.30;99.90;;;;;;5008371;28;20215;-72
2024/01/25 06:55:29;;;;;;;39.53;10.60;;;5.40;99.90;;;;;;5010546;28;20254;-72
2024/01/25 06:57:55;;;;;;;49.90;10.37;;;5.40;99.90;;;;;;5014489;28;20655;-72
2024/01/25 07:00:21;;;;;;;49.70;11.10;;;5.40;99.90;;;;;;5014239;28;20176;-73
2024/01/25 07:02:47;;;;;;;55.13;11.80;;;5.30;99.90;;;;;;5011090;28;20172;-72
2024/01/25 07:05:13;;;;;;;43.07;11.47;;;5.40;99.90;;;;;;5014565;28;20179;-72
2024/01/25 07:07:39;;;;;;;49.27;12.73;;;5.30;99.90;;;;;;5095106;22;20304;-71
2024/01/25 07:10:06;;;;;;;50.33;10.93;;;5.30;99.90;;;;;;5089446;28;20177;-71
2024/01/25 07:12:32;;;;;;;51.97;11.30;;;5.20;99.90;;;;;;5085419;28;20314;-71
2024/01/25 07:14:58;;;;;;;41.67;12.30;;;5.20;99.90;;;;;;5073089;28;20264;-71
2024/01/25 07:17:23;;;;;;;47.80;13.57;;;5.00;99.90;;;;;;5063011;28;20206;-71
2024/01/25 07:19:49;;;;;;;53.87;12.87;;;5.00;99.90;;;;;;5053901;28;20174;-73
2024/01/25 07:22:17;;;;;;;53.27;13.33;;;5.10;99.90;;;;;;5054170;28;20175;-71
2024/01/25 07:24:43;;;;;;;53.27;13.40;;;5.10;99.90;;;;;;5053900;28;20170;-72
2024/01/25 07:27:10;;;;;;;65.33;14.03;;;5.10;99.90;;;;;;5055650;28;20661;-73
2024/01/25 07:29:36;;;;;;;60.37;13.33;;;5.00;99.90;;;;;;5053863;28;20568;-72
2024/01/25 07:32:02;;;;;;;43.70;11.87;;;5.00;99.90;;;;;;5069460;28;20174;-72
2024/01/25 07:34:28;;;;;;;50.13;12.80;;;5.00;99.90;;;;;;5053901;28;20171;-72
2024/01/25 07:36:53;;;;;;;54.43;12.60;;;5.10;99.90;;;;;;5054780;28;20273;-73
2024/01/25 07:39:19;;;;;;;48.20;12.27;;;5.10;99.90;;;;;;5053839;28;20198;-72
2024/01/25 07:41:44;;;;;;;38.90;12.30;;;5.10;99.90;;;;;;5063556;28;20170;-72
2024/01/25 07:44:10;;;;;;;41.17;13.20;;;5.10;99.90;;;;;;5070190;28;20231;-72
2024/01/25 07:46:36;;;;;;;56.80;13.83;;;5.00;99.90;;;;;;5070803;28;20198;-73
2024/01/25 07:49:01;;;;;;;45.80;12.33;;;5.20;99.90;;;;;;5042274;28;20268;-72
2024/01/25 07:51:28;;;;;;;57.37;13.80;;;5.20;99.90;;;;;;5076373;28;20515;-72
2024/01/25 07:53:54;;;;;;;42.50;12.67;;;5.20;99.90;;;;;;5054942;28;20741;-75
2024/01/25 07:56:21;;;;;;;53.73;13.33;;;5.20;99.90;;;;;;5064166;28;20202;-73
2024/01/25 07:58:51;;;;;;;44.43;13.40;;;5.20;99.90;;;;;;5053235;28;20167;-72
2024/01/25 08:01:19;;;;;;;45.23;11.93;;;5.30;99.90;;;;;;5065609;28;20185;-72
2024/01/25 08:03:45;;;;;;;53.40;12.93;;;5.30;99.90;;;;;;5072422;28;20577;-72
2024/01/25 08:06:11;;;;;;;60.23;14.20;;;5.30;99.90;;;;;;5072932;28;20249;-72
2024/01/25 08:08:37;;;;;;;54.33;15.43;;;5.30;99.90;;;;;;5061724;28;20258;-72
2024/01/25 08:11:04;;;;;;;63.80;16.17;;;5.40;99.90;;;;;;5063767;28;20264;-72
2024/01/25 08:13:29;;;;;;;57.90;16.83;;;5.60;99.90;;;;;;5055360;28;20182;-72
2024/01/25 08:15:56;;;;;;;63.20;16.33;;;5.70;99.90;;;;;;5052956;28;20570;-71
2024/01/25 08:18:22;;;;;;;58.80;16.07;;;5.80;99.90;;;;;;5069710;28;20244;-72
2024/01/25 08:20:48;;;;;;;60.57;18.17;;;6.00;99.90;;;;;;5072361;28;20641;-72
2024/01/25 08:23:14;;;;;;;67.03;16.80;;;6.10;99.90;;;;;;5056330;28;20182;-72
2024/01/25 08:25:40;;;;;;;73.03;18.60;;;6.20;99.90;;;;;;5053538;28;20178;-72
2024/01/25 08:28:06;;;;;;;59.73;16.90;;;6.40;99.90;;;;;;5057352;28;20676;-72
2024/01/25 08:30:32;;;;;;;55.60;15.77;;;6.40;99.90;;;;;;5063405;28;20255;-73
2024/01/25 08:32:58;;;;;;;52.37;17.53;;;6.50;99.90;;;;;;5067842;28;20183;-72
2024/01/25 08:35:24;;;;;;;61.33;16.33;;;6.60;99.90;;;;;;5064166;28;20654;-72
2024/01/25 08:37:50;;;;;;;67.57;17.63;;;6.70;99.90;;;;;;5060282;28;20259;-72
2024/01/25 08:40:15;;;;;;;44.40;15.73;;;6.80;99.90;;;;;;5058213;28;20262;-72
2024/01/25 08:42:41;;;;;;;58.00;16.87;;;6.80;99.90;;;;;;5055506;28;20261;-72
2024/01/25 08:45:08;;;;;;;56.53;16.43;;;7.00;99.90;;;;;;5066843;28;20642;-72
2024/01/25 08:47:37;;;;;;;44.43;16.57;;;7.10;99.90;;;;;;5061963;28;20201;-72
2024/01/25 08:50:03;;;;;;;58.93;16.43;;;7.10;99.90;;;;;;5072364;28;20812;-73
2024/01/25 08:52:29;;;;;;;51.03;17.90;;;7.20;99.90;;;;;;5055527;28;20592;-72
2024/01/25 08:54:55;;;;;;;48.00;16.00;;;7.30;99.90;;;;;;5052373;28;20202;-73
2024/01/25 08:57:20;;;;;;;62.03;16.57;;;7.30;99.90;;;;;;5055573;28;20206;-73
2024/01/25 08:59:46;;;;;;;56.77;16.83;;;7.40;99.90;;;;;;5069835;28;20379;-72
2024/01/25 09:02:12;;;;;;;57.63;16.87;;;7.50;99.90;;;;;;5053108;28;20176;-72
2024/01/25 09:04:37;;;;;;;57.37;17.87;;;7.60;99.90;;;;;;5052236;28;20578;-72
2024/01/25 09:07:03;;;;;;;55.23;16.90;;;7.60;99.90;;;;;;5054499;28;20206;-72
2024/01/25 09:09:29;;;;;;;65.90;17.67;;;7.60;99.90;;;;;;5061538;28;20228;-73
2024/01/25 09:11:55;;;;;;;61.73;17.50;;;7.70;99.90;;;;;;5052162;28;20544;-73
2024/01/25 09:14:21;;;;;;;51.07;17.63;;;7.80;99.90;;;;;;5069290;28;20176;-72
2024/01/25 09:16:46;;;;;;;44.17;17.23;;;7.70;99.90;;;;;;5067738;28;20202;-73
2024/01/25 09:19:12;;;;;;;67.70;17.37;;;7.70;99.90;;;;;;5057885;28;20193;-73
2024/01/25 09:21:40;;;;;;;55.77;17.50;;;7.70;99.90;;;;;;5068171;28;20175;-72
2024/01/25 09:24:07;;;;;;;69.33;17.67;;;7.90;99.90;;;;;;5052109;28;20174;-72
2024/01/25 09:26:33;;;;;;;66.10;19.10;;;8.10;99.90;;;;;;5054350;28;20638;-74
2024/01/25 09:28:58;;;;;;;55.70;18.97;;;8.20;99.90;;;;;;5065463;28;20178;-73
2024/01/25 09:31:24;;;;;;;55.83;18.17;;;8.40;99.90;;;;;;5061312;28;20178;-73
2024/01/25 09:33:50;;;;;;;51.07;16.63;;;8.60;99.90;;;;;;5058353;28;20548;-73
2024/01/25 09:36:17;;;;;;;55.27;17.77;;;8.90;99.90;;;;;;5067900;28;20198;-72
2024/01/25 09:38:43;;;;;;;62.00;17.53;;;9.10;99.90;;;;;;5055552;28;20229;-73
2024/01/25 09:41:08;;;;;;;49.83;16.67;;;9.40;99.90;;;;;;5052986;28;20383;-73
2024/01/25 09:43:35;;;;;;;42.23;16.07;;;9.50;99.90;;;;;;5072946;28;20649;-73
2024/01/25 09:46:02;;;;;;;46.57;15.40;;;9.60;99.90;;;;;;5073036;28;20188;-73
2024/01/25 09:48:27;;;;;;;49.40;16.83;;;9.70;99.90;;;;;;5070344;28;20177;-73
2024/01/25 09:50:55;;;;;;;39.13;15.50;;;10.00;99.90;;;;;;5052208;28;20749;-73
2024/01/25 09:53:24;;;;;;;36.27;13.83;;;10.20;99.90;;;;;;5067964;28;20673;-73
2024/01/25 09:56:13;;;;;;;39.23;15.07;;;10.50;99.90;;;;;;5059158;28;20554;-73
2024/01/25 09:58:45;;;;;;;33.80;14.60;;;10.70;99.90;;;;;;5050484;28;20194;-73
2024/01/25 10:01:13;;;;;;;34.33;13.60;;;10.70;99.90;;;;;;5039342;28;20189;-73
2024/01/25 10:03:42;;;;;;;40.07;13.87;;;10.80;99.90;;;;;;5067793;28;20186;-73
2024/01/25 10:06:10;;;;;;;46.43;14.13;;;10.90;99.90;;;;;;5051216;28;20195;-73
2024/01/25 10:08:35;;;;;;;34.97;13.73;;;10.70;99.90;;;;;;5067393;28;20253;-72
2024/01/25 10:11:01;;;;;;;31.27;13.60;;;10.60;99.90;;;;;;5042709;28;20249;-73
2024/01/25 10:13:27;;;;;;;34.33;13.80;;;10.70;99.90;;;;;;5053786;28;20171;-73
2024/01/25 10:15:54;;;;;;;43.23;14.60;;;10.70;99.90;;;;;;5053591;28;20212;-72
2024/01/25 10:18:20;;;;;;;42.17;14.93;;;10.90;99.90;;;;;;5033733;28;20233;-73
2024/01/25 10:20:45;;;;;;;36.80;13.80;;;11.10;99.90;;;;;;5051046;28;20557;-73
2024/01/25 10:23:11;;;;;;;40.50;14.53;;;11.30;99.90;;;;;;5051679;28;20215;-73
2024/01/25 10:25:37;;;;;;;37.20;13.70;;;11.60;99.90;;;;;;5051499;28;20170;-72
2024/01/25 10:28:04;;;;;;;35.87;14.60;;;12.00;99.90;;;;;;5051575;28;20175;-73
2024/01/25 10:30:34;;;;;;;28.33;12.23;;;12.30;99.90;;;;;;5051256;28;20182;-73
2024/01/25 10:33:01;;;;;;;36.20;13.37;;;12.50;99.90;;;;;;5055117;28;20192;-73
2024/01/25 10:35:27;;;;;;;37.80;13.57;;;12.70;99.90;;;;;;5055211;28;20652;-73
2024/01/25 10:37:53;;;;;;;26.10;13.10;;;12.80;37.00;;;;;;5074705;28;20201;-73
2024/01/25 10:40:20;;;;;;;36.27;14.93;;;12.90;99.90;;;;;;5075094;28;20247;-73
2024/01/25 10:42:46;;;;;;;39.13;14.93;;;12.70;99.90;;;;;;5075131;28;20657;-72
2024/01/25 10:45:12;;;;;;;40.37;13.43;;;12.50;99.90;;;;;;5074795;28;20167;-73
2024/01/25 10:47:40;;;;;;;40.57;15.13;;;12.40;67.80;;;;;;5056984;28;20202;-73
2024/01/25 10:50:11;;;;;;;44.60;15.20;;;12.20;27.60;;;;;;5063998;28;20224;-73
2024/01/25 10:52:38;;;;;;;38.17;15.00;;;11.80;54.00;;;;;;5055182;28;20269;-73
2024/01/25 10:55:05;;;;;;;33.43;14.43;;;11.60;99.90;;;;;;5059952;28;20657;-72
2024/01/25 10:57:42;;;;;;;42.80;16.63;;;11.50;99.90;;;;;;5054800;28;20217;-73
2024/01/25 11:00:10;;;;;;;39.43;16.13;;;11.40;99.90;;;;;;5054645;28;20200;-73
2024/01/25 11:02:39;;;;;;;32.77;15.67;;;11.30;99.90;;;;;;5058349;28;20228;-72
2024/01/25 11:05:16;;;;;;;38.63;14.87;;;11.30;99.90;;;;;;5072773;28;20178;-72
2024/01/25 11:07:49;;;;;;;39.20;14.50;;;11.40;99.90;;;;;;5074489;28;20205;-73
2024/01/25 11:10:18;;;;;;;37.97;15.67;;;11.40;98.20;;;;;;5074564;28;20221;-72
2024/01/25 11:12:58;;;;;;;39.07;14.60;;;11.30;99.90;;;;;;5058137;28;20214;-73
2024/01/25 11:15:31;;;;;;;36.03;15.43;;;11.50;99.90;;;;;;5055196;28;20174;-73
2024/01/25 11:17:57;;;;;;;43.63;14.93;;;11.70;99.60;;;;;;5054754;28;20206;-72
2024/01/25 11:20:24;;;;;;;36.97;15.13;;;12.00;99.90;;;;;;5054578;28;20178;-73
2024/01/25 11:22:57;;;;;;;37.77;14.27;;;12.20;43.80;;;;;;5055727;28;20257;-73
2024/01/25 11:25:23;;;;;;;35.47;14.37;;;12.30;1.00;;;;;;5055121;28;20183;-73
2024/01/25 11:27:50;;;;;;;33.43;14.77;;;12.30;1.00;;;;;;5053989;28;20263;-73
2024/01/25 11:30:19;;;;;;;39.03;15.60;;;12.50;1.00;;;;;;5053754;28;20175;-73
2024/01/25 11:32:49;;;;;;;29.93;13.67;;;12.70;1.00;;;;;;5054209;28;20175;-73
2024/01/25 11:35:18;;;;;;;44.60;15.33;;;12.90;1.00;;;;;;5053788;28;20255;-73
2024/01/25 11:37:48;;;;;;;29.23;13.07;;;13.10;1.00;;;;;;5053740;28;20211;-73
2024/01/25 11:40:16;;;;;;;35.63;15.07;;;13.30;1.00;;;;;;5050452;28;20186;-73
2024/01/25 11:42:47;;;;;;;32.70;12.20;;;13.60;1.00;;;;;;5073267;28;20189;-73
2024/01/25 11:45:14;;;;;;;29.00;12.70;;;13.70;1.00;;;;;;5074311;28;20598;-73
2024/01/25 11:47:40;;;;;;;31.27;12.77;;;13.50;1.00;;;;;;5074043;28;20194;-73
2024/01/25 11:50:08;;;;;;;39.10;13.10;;;13.40;1.00;;;;;;5074086;28;20178;-72
2024/01/25 11:52:34;;;;;;;30.50;13.47;;;13.40;1.00;;;;;;5068390;28;20187;-72
2024/01/25 11:55:04;;;;;;;34.23;12.47;;;13.50;1.00;;;;;;5055566;28;20267;-73
2024/01/25 11:57:31;;;;;;;28.50;11.40;;;13.60;1.00;;;;;;5056157;28;20210;-74
2024/01/25 11:59:57;;;;;;;37.53;11.13;;;13.40;1.00;;;;;;5055988;28;20194;-73
2024/01/25 12:02:24;;;;;;;30.77;10.40;;;13.40;1.00;;;;;;5056802;28;20202;-73
2024/01/25 12:04:50;;;;;;;28.60;11.27;;;13.50;1.00;;;;;;5056271;28;20167;-73
2024/01/25 12:07:15;;;;;;;33.73;10.80;;;13.50;1.00;;;;;;5061332;28;20209;-74
2024/01/25 12:09:41;;;;;;;30.07;10.70;;;13.50;1.00;;;;;;5075096;28;20177;-73
2024/01/25 12:12:09;;;;;;;38.20;11.07;;;13.40;1.00;;;;;;5075460;28;20170;-72
2024/01/25 12:14:35;;;;;;;31.50;10.87;;;13.50;1.00;;;;;;5062841;28;20183;-73
2024/01/25 12:17:01;;;;;;;38.30;9.67;;;13.50;1.00;;;;;;5055838;28;20199;-73
2024/01/25 12:19:28;;;;;;;32.07;12.23;;;13.60;1.00;;;;;;5054675;28;20179;-72
2024/01/25 12:21:56;;;;;;;29.13;10.67;;;13.50;1.00;;;;;;5054180;28;20188;-73
2024/01/25 12:24:21;;;;;;;26.73;10.77;;;13.40;1.00;;;;;;5055535;28;20182;-73
2024/01/25 12:26:47;;;;;;;31.77;10.23;;;13.40;1.00;;;;;;5054935;28;20576;-73
2024/01/25 12:29:13;;;;;;;26.43;9.83;;;13.30;1.00;;;;;;5054021;28;20179;-73
2024/01/25 12:31:38;;;;;;;32.63;8.67;;;13.30;1.00;;;;;;5054084;28;20190;-73
2024/01/25 12:34:14;;;;;;;29.97;9.10;;;13.40;1.00;;;;;;5054566;28;20174;-73
2024/01/25 12:36:39;;;;;;;25.07;8.90;;;13.40;1.00;;;;;;5054432;28;20234;-73
2024/01/25 12:39:05;;;;;;;30.80;9.30;;;13.30;1.00;;;;;;5054031;28;20206;-73